Accueil
METAR-TAF:

METAR-TAF

Aéroports :

Aéroport de Ghriss

Ghriss, Algérie

latitude: 35-12N, longitude: 000-08E, altitude: 514 m

Observation

Le bulletin a été fait il y a 23 minutes, à 07:00 UTC
Vent 2 kt de sud-ouest
Température 11°C
Humidité 94%
Pression 1028 hPa
Visibilité: 3000 m
Nuages épars à une hauteur de 1000 ft
Nuages fragmentés à une hauteur de 3000 ft
brume

METAR: DAOV 190700Z 22002KT 3000 BR SCT010 BKN030 11/10 Q1028

Heure: 08:23 (07:23 UTC)

Prévision

Le bulletin a été fait il y a 2 heures et 23 minutes, à 05:00 UTC
Prévision valable du 19 à 06 UTC au 19 à 15 UTC
Vent 2 kt de direction variable
Visibilité 10 km ou plus
Quelques nuages à une hauteur de 3000 ft
Nuages épars à une hauteur de 23000 ft
Probabilité 30% :
Temporairement
du 19 à 06 UTC au 19 à 09 UTC
Visibilité: 3000 m
Nuages fragmentés à une hauteur de 1000 ft
brume

TAF: DAOV 190500Z 1906/1915 VRB02KT 9999 FEW030 SCT230 PROB30 TEMPO 1906/1909 3000 BR BKN010

Observations et prévisions météorologiques de plus de 4000 aéroports (messages METAR et TAF).

Les stations disponibles sont représentées par des disques jaunes et rouges sur la carte.

Passer la souris dessus pour voir le nom de la station.

Cliquer dessus pour voir les observations et prévisions météorologiques.

Pour changer de carte: cliquez sur les boutons verts avec une croix noire pour zoomer, sur le bouton vert avec un tiret pour effectuer un zoom arrière, ou sur les flèches vertes pour les cartes adjacentes.


METAR-TAF: